Time;durP1;ratioP1;P1;durP2;ratioP2;P2;SDS_P1;SDS_P2;PMS_P1;PMS_P2;Temp;Humidity;BMP_temperature;BMP_pressure;BME280_temperature;BME280_humidity;BME280_pressure;Samples;Min_cycle;Max_cycle;Signal;HPM_P1;HPM_P2
2022/08/25 00:02:05;;;;;;;11.48;4.05;;;;;;;24.60;42.48;101256.03;5103619;28;20044;-55
2022/08/25 00:04:34;;;;;;;18.33;4.18;;;;;;;24.56;42.23;101248.59;5101812;28;20393;-54
2022/08/25 00:07:02;;;;;;;17.83;4.28;;;;;;;24.48;41.13;101247.03;5088565;28;20052;-54
2022/08/25 00:09:30;;;;;;;15.68;4.50;;;;;;;24.47;41.70;101254.34;5107925;28;20077;-53
2022/08/25 00:11:57;;;;;;;10.48;4.35;;;;;;;24.37;42.09;101253.28;5098670;28;20047;-54
2022/08/25 00:14:28;;;;;;;17.65;4.35;;;;;;;24.36;41.49;101251.63;5103001;28;20056;-53
2022/08/25 00:16:56;;;;;;;12.02;4.45;;;;;;;24.29;42.28;101249.03;5088529;28;20367;-54
2022/08/25 00:19:27;;;;;;;12.82;4.30;;;;;;;24.26;43.03;101246.78;5110724;28;20409;-53
2022/08/25 00:21:55;;;;;;;14.68;4.57;;;;;;;24.22;42.18;101251.03;5102521;28;20052;-54
2022/08/25 00:24:23;;;;;;;10.60;4.47;;;;;;;24.19;43.45;101255.00;5106085;28;20516;-52
2022/08/25 00:26:53;;;;;;;12.77;4.30;;;;;;;24.11;42.35;101250.75;5110046;28;20409;-53
2022/08/25 00:29:21;;;;;;;13.48;4.30;;;;;;;24.04;43.72;101246.50;5095412;27;20061;-53
2022/08/25 00:31:48;;;;;;;10.77;4.50;;;;;;;24.05;43.64;101248.97;5080583;28;20447;-52
2022/08/25 00:34:20;;;;;;;17.60;4.78;;;;;;;23.97;44.21;101252.00;5094863;28;20036;-55
2022/08/25 00:36:50;;;;;;;15.65;4.15;;;;;;;23.86;42.24;101250.09;5109149;28;20036;-53
2022/08/25 00:39:19;;;;;;;10.00;4.05;;;;;;;23.93;43.03;101256.25;5097247;28;20047;-54
2022/08/25 00:41:48;;;;;;;11.85;4.97;;;;;;;23.90;43.56;101260.25;5100331;28;20040;-52
2022/08/25 00:44:17;;;;;;;17.10;4.43;;;;;;;23.91;43.92;101253.75;5102366;28;20089;-51
2022/08/25 00:46:48;;;;;;;14.25;4.60;;;;;;;23.88;43.88;101259.63;5104074;28;20126;-54
2022/08/25 00:49:22;;;;;;;20.30;4.60;;;;;;;23.92;43.45;101260.00;5096770;28;20425;-54
2022/08/25 00:51:54;;;;;;;10.43;4.50;;;;;;;23.92;43.58;101265.41;5101345;27;20050;-54
2022/08/25 00:54:26;;;;;;;10.60;4.55;;;;;;;23.87;43.72;101266.13;5094098;28;20036;-55
2022/08/25 00:56:57;;;;;;;12.88;4.07;;;;;;;23.71;43.01;101259.41;5110203;28;20043;-52
2022/08/25 00:59:25;;;;;;;11.45;4.53;;;;;;;23.75;43.36;101262.50;5077637;28;20044;-56
2022/08/25 01:01:54;;;;;;;14.73;4.90;;;;;;;23.80;43.73;101264.56;5100660;28;20056;-57
2022/08/25 01:04:21;;;;;;;12.73;4.40;;;;;;;23.75;43.82;101263.31;5100576;28;20040;-55
2022/08/25 01:06:48;;;;;;;12.80;4.60;;;;;;;23.72;43.82;101262.94;5109538;28;20051;-55
2022/08/25 01:09:16;;;;;;;9.70;4.40;;;;;;;23.68;44.13;101254.44;5095836;28;20138;-55
2022/08/25 01:11:44;;;;;;;11.95;4.53;;;;;;;23.68;44.19;101254.44;5100152;28;20031;-54
2022/08/25 01:14:15;;;;;;;13.75;4.90;;;;;;;23.61;44.62;101255.59;5098696;28;20037;-55
2022/08/25 01:16:42;;;;;;;13.30;5.50;;;;;;;23.57;44.81;101244.41;5108257;28;20370;-54
2022/08/25 01:19:13;;;;;;;16.85;5.03;;;;;;;23.48;45.44;101252.00;5091093;28;20078;-55
2022/08/25 01:21:45;;;;;;;11.73;5.20;;;;;;;23.47;46.29;101250.38;5104104;28;20048;-53
2022/08/25 01:24:39;;;;;;;12.32;5.05;;;;;;;23.34;46.94;101254.06;5045372;28;20436;-52
2022/08/25 01:27:07;;;;;;;12.18;4.70;;;;;;;23.30;46.17;101252.88;5110477;28;20054;-53
2022/08/25 01:29:34;;;;;;;14.57;4.95;;;;;;;23.18;47.68;101258.19;5110711;28;20176;-53
2022/08/25 01:32:06;;;;;;;14.73;4.80;;;;;;;23.17;47.48;101251.13;5104720;28;20051;-53
2022/08/25 01:34:37;;;;;;;9.30;4.60;;;;;;;23.04;47.55;101262.09;5096497;28;20044;-53
2022/08/25 01:37:04;;;;;;;9.70;4.30;;;;;;;23.02;47.75;101255.22;5094907;28;20119;-52
2022/08/25 01:39:35;;;;;;;10.68;4.70;;;;;;;22.92;48.46;101253.03;5093145;28;20089;-54
2022/08/25 01:44:42;;;;;;;10.20;4.80;;;;;;;22.80;48.78;101252.94;5063830;28;20932;-54
2022/08/25 01:47:11;;;;;;;12.18;5.18;;;;;;;22.81;48.12;101249.19;5068019;28;20037;-54
2022/08/25 01:49:38;;;;;;;13.57;5.05;;;;;;;22.81;47.19;101249.19;5063676;28;20061;-54
2022/08/25 01:52:26;;;;;;;10.65;4.90;;;;;;;22.85;46.88;101250.41;5064985;28;20045;-53
2022/08/25 01:54:53;;;;;;;15.63;4.50;;;;;;;22.86;46.87;101248.53;5069964;28;20064;-55
2022/08/25 01:57:21;;;;;;;14.27;4.57;;;;;;;22.84;46.81;101246.03;5069885;28;20037;-55
2022/08/25 01:59:47;;;;;;;10.63;4.28;;;;;;;22.81;46.46;101257.28;5066730;28;20048;-54
2022/08/25 02:02:14;;;;;;;11.30;4.82;;;;;;;22.82;46.83;101253.56;5063490;28;20048;-55
2022/08/25 02:04:41;;;;;;;15.00;5.05;;;;;;;22.80;46.54;101255.66;5069999;28;20443;-54
2022/08/25 02:07:08;;;;;;;13.05;4.53;;;;;;;22.79;46.69;101252.13;5069641;28;20084;-53
2022/08/25 02:09:36;;;;;;;13.77;4.70;;;;;;;22.83;47.00;101259.78;5057244;28;20127;-54
2022/08/25 02:12:03;;;;;;;18.73;5.30;;;;;;;22.79;46.84;101254.84;5058844;28;20437;-55
2022/08/25 02:14:30;;;;;;;11.95;4.18;;;;;;;22.81;47.00;101252.72;5070434;28;20048;-55
2022/08/25 02:16:57;;;;;;;11.70;4.55;;;;;;;22.78;46.77;101249.66;5066477;28;20505;-55
2022/08/25 02:19:24;;;;;;;15.40;4.65;;;;;;;22.76;46.50;101252.56;5052842;28;20437;-55
2022/08/25 02:21:51;;;;;;;12.25;5.00;;;;;;;22.75;46.96;101252.78;5065916;28;20098;-55
2022/08/25 02:24:18;;;;;;;12.98;5.20;;;;;;;22.73;46.69;101254.88;5026714;28;20040;-54
2022/08/25 02:26:44;;;;;;;12.95;4.95;;;;;;;22.75;46.92;101255.50;5049201;28;20487;-54
2022/08/25 02:29:12;;;;;;;13.00;4.72;;;;;;;22.72;47.36;101245.97;5064779;28;20037;-53
2022/08/25 02:31:39;;;;;;;13.43;5.05;;;;;;;22.65;47.78;101252.44;5070338;28;20064;-54
2022/08/25 02:34:08;;;;;;;12.30;4.35;;;;;;;22.62;47.04;101249.16;5068884;28;20133;-55
2022/08/25 02:36:36;;;;;;;10.48;4.90;;;;;;;22.69;46.83;101250.97;5069280;28;20045;-54
2022/08/25 02:39:06;;;;;;;11.15;4.22;;;;;;;22.70;46.21;101249.91;5067870;28;20487;-54
2022/08/25 02:41:34;;;;;;;13.07;4.35;;;;;;;22.74;45.59;101241.16;5054074;28;20060;-54
2022/08/25 02:44:02;;;;;;;9.15;4.32;;;;;;;22.76;47.46;101247.16;5066431;28;20221;-54
2022/08/25 02:46:29;;;;;;;11.82;4.50;;;;;;;22.75;46.11;101240.09;5061657;28;20048;-54
2022/08/25 02:48:57;;;;;;;12.43;4.60;;;;;;;22.78;46.49;101244.22;5068893;28;20072;-54
2022/08/25 02:51:24;;;;;;;9.05;4.53;;;;;;;22.81;46.46;101250.03;5052174;28;20098;-55
2022/08/25 02:53:51;;;;;;;9.27;4.65;;;;;;;22.76;46.71;101239.03;5066441;28;20548;-53
2022/08/25 02:56:19;;;;;;;15.80;4.70;;;;;;;22.83;46.73;101240.84;5056053;28;20045;-54
2022/08/25 02:58:46;;;;;;;17.88;4.80;;;;;;;22.83;45.85;101238.13;5049697;28;20053;-54
2022/08/25 03:01:14;;;;;;;11.95;4.63;;;;;;;22.76;45.95;101230.94;5054092;28;20098;-54
2022/08/25 03:03:44;;;;;;;20.02;4.45;;;;;;;22.78;45.51;101228.81;5054131;28;20041;-53
2022/08/25 03:06:12;;;;;;;10.93;4.30;;;;;;;22.82;46.44;101231.91;5055497;28;20152;-54
2022/08/25 03:08:40;;;;;;;12.35;4.57;;;;;;;22.85;46.09;101223.38;5055416;28;20044;-54
2022/08/25 03:11:08;;;;;;;11.40;4.70;;;;;;;22.83;47.09;101222.75;5038987;28;20095;-50
2022/08/25 03:13:35;;;;;;;21.33;5.07;;;;;;;22.83;46.22;101220.06;5054953;28;20091;-53
2022/08/25 03:16:04;;;;;;;13.43;4.35;;;;;;;22.81;46.44;101216.72;5049728;28;20048;-53
2022/08/25 03:18:31;;;;;;;11.80;4.78;;;;;;;22.78;46.89;101220.72;5054508;28;20084;-54
2022/08/25 03:20:58;;;;;;;17.35;4.72;;;;;;;22.72;46.50;101212.66;5051550;28;20041;-54
2022/08/25 03:23:25;;;;;;;18.92;4.88;;;;;;;22.70;47.00;101212.06;4997833;28;20431;-55
2022/08/25 03:28:40;;;;;;;13.50;5.00;;;;;;;22.68;46.94;101212.28;5052988;28;20049;-53
2022/08/25 03:31:08;;;;;;;13.13;4.72;;;;;;;22.71;46.36;101209.13;5035636;28;20049;-53
2022/08/25 03:33:35;;;;;;;13.15;5.00;;;;;;;22.58;46.35;101210.09;5052927;28;20433;-52
2022/08/25 03:36:04;;;;;;;14.98;4.80;;;;;;;22.54;47.48;101210.75;5049547;28;20109;-54
2022/08/25 03:38:31;;;;;;;13.93;5.35;;;;;;;22.47;47.58;101197.31;5035030;28;20056;-55
2022/08/25 03:40:58;;;;;;;18.52;5.70;;;;;;;22.48;49.00;101201.66;5054857;28;20057;-56
2022/08/25 03:43:24;;;;;;;16.63;6.18;;;;;;;22.37;49.08;101203.19;5050875;28;20442;-52
2022/08/25 03:45:51;;;;;;;14.65;5.72;;;;;;;22.37;49.39;101205.91;5024421;28;20049;-53
2022/08/25 03:48:18;;;;;;;13.02;5.20;;;;;;;22.33;49.42;101201.19;5054626;28;20091;-52
2022/08/25 03:50:48;;;;;;;24.42;7.68;;;;;;;22.29;49.84;101208.09;5049534;28;20546;-53
2022/08/25 03:53:15;;;;;;;17.75;7.85;;;;;;;22.23;49.50;101207.88;5068539;28;20037;-54
2022/08/25 03:55:42;;;;;;;16.38;7.60;;;;;;;22.19;50.36;101206.66;5042123;28;20049;-53
2022/08/25 03:58:09;;;;;;;10.52;5.78;;;;;;;22.14;49.65;101208.34;5054253;28;20049;-53
2022/08/25 04:00:36;;;;;;;15.32;6.07;;;;;;;22.09;50.32;101205.50;5049240;28;20114;-52
2022/08/25 04:03:03;;;;;;;13.48;5.65;;;;;;;22.00;50.34;101202.25;5053346;28;20044;-54
2022/08/25 04:05:30;;;;;;;12.65;5.38;;;;;;;21.99;50.79;101187.91;5052979;28;20106;-54
2022/08/25 04:07:56;;;;;;;15.73;5.78;;;;;;;21.97;50.72;101183.75;5053694;28;20068;-54
2022/08/25 04:10:23;;;;;;;19.50;5.80;;;;;;;21.93;50.20;101174.44;5054202;28;20080;-54
2022/08/25 04:12:50;;;;;;;17.05;5.57;;;;;;;22.01;49.88;101171.47;5053830;28;20102;-55
2022/08/25 04:15:17;;;;;;;14.68;5.10;;;;;;;21.90;50.45;101170.28;5041251;28;20112;-53
2022/08/25 04:17:44;;;;;;;14.25;5.53;;;;;;;21.93;49.96;101171.75;5040582;28;20064;-53
2022/08/25 04:20:11;;;;;;;16.50;5.22;;;;;;;21.93;50.13;101174.44;5056667;28;20102;-55
2022/08/25 04:22:38;;;;;;;13.27;5.60;;;;;;;21.88;50.83;101175.09;5004673;28;20127;-54
2022/08/25 04:25:06;;;;;;;17.23;5.63;;;;;;;21.92;51.37;101178.19;5037232;28;20483;-53
2022/08/25 04:27:33;;;;;;;16.58;5.70;;;;;;;21.96;51.21;101182.13;5018065;28;20079;-53
2022/08/25 04:30:00;;;;;;;14.07;5.72;;;;;;;21.91;51.28;101181.94;5046492;28;20049;-54
2022/08/25 04:32:27;;;;;;;18.13;6.78;;;;;;;21.90;51.26;101182.97;5043339;28;20044;-54
2022/08/25 04:34:53;;;;;;;28.10;7.15;;;;;;;21.90;51.61;101182.97;5045700;28;20065;-53
2022/08/25 04:37:20;;;;;;;19.88;6.35;;;;;;;21.92;51.38;101191.69;5053690;28;20037;-53
2022/08/25 04:39:47;;;;;;;14.95;6.40;;;;;;;21.90;51.87;101185.69;5035813;28;20099;-52
2022/08/25 04:42:13;;;;;;;13.25;6.55;;;;;;;21.90;52.29;101189.19;5048554;28;20132;-53
2022/08/25 04:44:40;;;;;;;21.00;5.68;;;;;;;21.91;52.00;101184.66;5048489;28;20128;-53
2022/08/25 04:47:08;;;;;;;18.25;5.53;;;;;;;21.75;52.57;101189.50;5053501;28;20075;-52
2022/08/25 04:49:35;;;;;;;14.38;5.80;;;;;;;21.76;52.11;101183.06;5036167;28;20183;-53
2022/08/25 04:52:03;;;;;;;11.98;5.32;;;;;;;21.72;52.31;101181.00;5052977;28;20059;-52
2022/08/25 04:54:30;;;;;;;17.80;5.70;;;;;;;21.75;52.05;101184.09;5050923;28;20064;-52
2022/08/25 04:56:56;;;;;;;13.82;5.60;;;;;;;21.79;51.91;101179.94;5053060;28;20099;-53
2022/08/25 04:59:23;;;;;;;19.25;6.13;;;;;;;21.83;52.42;101178.47;5049470;28;20037;-54
2022/08/25 05:01:50;;;;;;;16.02;5.30;;;;;;;21.88;51.72;101179.66;5053203;28;20067;-54
2022/08/25 05:04:20;;;;;;;19.60;5.78;;;;;;;21.88;52.71;101183.19;5051591;28;20049;-54
2022/08/25 05:06:47;;;;;;;17.98;5.80;;;;;;;21.85;52.64;101181.75;5034215;28;20051;-53
2022/08/25 05:09:14;;;;;;;16.02;5.63;;;;;;;21.83;52.34;101177.66;5052402;28;20080;-53
2022/08/25 05:11:41;;;;;;;10.07;5.10;;;;;;;21.81;52.23;101177.84;5051784;28;20049;-54
2022/08/25 05:14:10;;;;;;;18.10;5.50;;;;;;;21.82;51.82;101176.78;5041836;28;20079;-54
2022/08/25 05:16:38;;;;;;;13.52;5.50;;;;;;;21.87;53.51;101180.72;5035342;28;20086;-53
2022/08/25 05:19:06;;;;;;;13.23;5.90;;;;;;;21.89;54.04;101176.75;5054537;28;20482;-53
2022/08/25 05:21:33;;;;;;;20.73;5.85;;;;;;;21.87;52.81;101186.13;5052813;28;20056;-54
2022/08/25 05:24:00;;;;;;;17.45;5.65;;;;;;;21.87;53.31;101172.63;5019343;28;20077;-54
2022/08/25 05:26:30;;;;;;;16.75;5.82;;;;;;;21.79;53.56;101169.16;5052620;28;20052;-54
2022/08/25 05:29:00;;;;;;;18.30;6.15;;;;;;;21.75;53.73;101167.91;5050391;28;20087;-54
2022/08/25 05:31:27;;;;;;;17.23;5.68;;;;;;;21.71;53.82;101163.19;5062554;28;20041;-53
2022/08/25 05:33:55;;;;;;;15.98;6.00;;;;;;;21.82;53.43;101162.47;5049302;28;20490;-54
2022/08/25 05:36:23;;;;;;;15.43;5.57;;;;;;;21.86;53.56;101174.47;5032306;28;20045;-52
2022/08/25 05:38:50;;;;;;;15.45;6.25;;;;;;;21.93;54.21;101169.03;5046453;28;20051;-52
2022/08/25 05:41:19;;;;;;;16.25;6.20;;;;;;;21.93;54.55;101174.44;5052196;28;20064;-54
2022/08/25 05:43:48;;;;;;;35.10;21.13;;;;;;;22.01;53.70;101172.31;5051497;28;20052;-54
2022/08/25 05:46:17;;;;;;;19.58;8.50;;;;;;;21.97;54.23;101172.94;5051527;28;20060;-54
2022/08/25 05:48:44;;;;;;;17.65;6.72;;;;;;;21.96;55.09;101166.72;5042946;28;20068;-53
2022/08/25 05:51:13;;;;;;;17.75;6.32;;;;;;;21.92;54.07;101167.38;5047135;28;20068;-53
2022/08/25 05:53:43;;;;;;;21.20;6.65;;;;;;;22.01;54.55;101157.97;5049778;28;20092;-53
2022/08/25 05:56:12;;;;;;;19.73;6.60;;;;;;;22.07;53.83;101158.97;5051226;28;20045;-53
2022/08/25 05:58:41;;;;;;;24.45;6.25;;;;;;;22.13;54.51;101158.09;5051947;28;20052;-53
2022/08/25 06:03:55;;;;;;;16.42;6.28;;;;;;;22.05;54.10;101146.50;5049979;28;20077;-54
2022/08/25 06:06:23;;;;;;;15.60;6.20;;;;;;;22.18;54.46;101147.44;5051997;28;20604;-53
2022/08/25 06:08:50;;;;;;;21.35;6.00;;;;;;;22.27;55.09;101143.44;5043201;28;20055;-54
2022/08/25 06:11:17;;;;;;;13.13;5.95;;;;;;;22.26;54.06;101147.19;5051383;28;20068;-53
2022/08/25 06:13:44;;;;;;;17.92;5.82;;;;;;;22.27;53.86;101151.56;5052054;28;20068;-53
2022/08/25 06:16:11;;;;;;;15.38;5.50;;;;;;;22.35;54.36;101153.94;5051296;28;20045;-53
2022/08/25 06:18:38;;;;;;;18.10;6.35;;;;;;;22.43;53.25;101158.28;5051905;28;20041;-54
2022/08/25 06:21:11;;;;;;;17.63;6.30;;;;;;;22.45;53.45;101158.03;5052150;28;20456;-53
2022/08/25 06:23:38;;;;;;;13.70;6.00;;;;;;;22.49;54.15;101151.97;5007670;28;20411;-54
2022/08/25 06:26:05;;;;;;;17.00;5.88;;;;;;;22.52;54.50;101151.53;5042207;28;20091;-53
2022/08/25 06:28:32;;;;;;;21.48;6.40;;;;;;;22.51;54.18;101157.16;5046796;28;20128;-52
2022/08/25 06:31:00;;;;;;;19.67;6.15;;;;;;;22.52;54.11;101159.63;5051217;28;20045;-53
2022/08/25 06:33:27;;;;;;;14.50;6.00;;;;;;;22.56;54.53;101168.94;5056639;28;20056;-54
2022/08/25 06:35:55;;;;;;;16.63;6.15;;;;;;;22.62;53.86;101159.09;5055592;28;20127;-54
2022/08/25 06:38:22;;;;;;;25.05;6.53;;;;;;;22.65;53.83;101160.53;5051034;28;20065;-54
2022/08/25 06:40:50;;;;;;;16.98;6.55;;;;;;;22.70;53.27;101166.94;5059956;28;20498;-54
2022/08/25 06:43:19;;;;;;;18.83;6.13;;;;;;;22.73;53.73;101166.47;5055771;28;20075;-54
2022/08/25 06:45:47;;;;;;;16.95;6.65;;;;;;;22.83;53.55;101167.81;5054710;28;20068;-54
2022/08/25 06:48:14;;;;;;;16.52;5.88;;;;;;;22.81;53.56;101168.03;5021749;28;20048;-53
2022/08/25 06:50:42;;;;;;;15.63;6.28;;;;;;;22.88;54.36;101167.97;5055985;28;20053;-54
2022/08/25 06:53:09;;;;;;;17.88;6.80;;;;;;;23.09;52.06;101170.25;5052190;28;20128;-54
2022/08/25 06:55:36;;;;;;;14.15;6.13;;;;;;;23.02;52.72;101171.38;5051648;28;20371;-56
2022/08/25 06:58:04;;;;;;;14.20;6.32;;;;;;;23.04;53.15;101177.38;5055334;28;20059;-55
2022/08/25 07:00:31;;;;;;;13.43;6.00;;;;;;;23.07;53.47;101177.78;5055416;28;20056;-55
2022/08/25 07:02:59;;;;;;;15.13;5.95;;;;;;;23.12;52.75;101186.06;5055183;28;20102;-54
2022/08/25 07:05:28;;;;;;;19.48;6.25;;;;;;;23.25;52.21;101184.22;5054469;28;20086;-55
2022/08/25 07:07:59;;;;;;;17.05;6.13;;;;;;;23.26;51.97;101185.88;5055508;28;20150;-55
2022/08/25 07:10:26;;;;;;;18.38;6.43;;;;;;;23.18;52.11;101181.59;5051030;28;20471;-54
2022/08/25 07:12:53;;;;;;;17.45;5.85;;;;;;;23.18;52.95;101171.59;5055281;28;20052;-54
2022/08/25 07:15:20;;;;;;;12.88;5.70;;;;;;;23.25;52.35;101176.94;5054712;28;20090;-55
2022/08/25 07:17:47;;;;;;;14.13;6.43;;;;;;;23.28;52.67;101173.75;5055143;28;20045;-53
2022/08/25 07:20:14;;;;;;;15.93;5.50;;;;;;;23.34;52.12;101172.88;5054970;28;20072;-54
2022/08/25 07:22:41;;;;;;;12.38;5.70;;;;;;;23.34;52.75;101174.75;5040875;28;20515;-55
2022/08/25 07:25:10;;;;;;;14.20;6.00;;;;;;;23.46;52.14;101172.06;4993339;28;20069;-59
2022/08/25 07:27:38;;;;;;;18.05;6.15;;;;;;;23.54;50.68;101172.59;5052699;28;20048;-57
2022/08/25 07:30:07;;;;;;;16.65;6.53;;;;;;;23.64;52.87;101173.91;5052885;28;20098;-57
2022/08/25 07:32:33;;;;;;;18.65;6.53;;;;;;;23.63;52.90;101178.50;5044977;28;20052;-57
2022/08/25 07:35:16;;;;;;;21.13;6.60;;;;;;;23.72;57.11;101176.28;5049120;28;20110;-57
2022/08/25 07:37:44;;;;;;;14.10;6.90;;;;;;;23.69;57.08;101177.56;5050358;28;20049;-57
2022/08/25 07:40:17;;;;;;;;;;;;;;;23.77;52.21;101171.00;5053485;28;20047;-57
2022/08/25 07:42:44;;;;;;;18.83;5.60;;;;;;;23.87;51.93;101178.59;5052805;28;19927;-57
2022/08/25 07:45:12;;;;;;;16.27;6.45;;;;;;;23.89;51.08;101171.88;5050891;28;20413;-57
2022/08/25 07:47:39;;;;;;;18.45;6.28;;;;;;;24.01;50.90;101173.78;5040433;28;20482;-57
2022/08/25 07:50:09;;;;;;;16.30;5.95;;;;;;;24.07;50.58;101178.28;5053462;28;20056;-57
2022/08/25 07:52:35;;;;;;;15.68;6.82;;;;;;;24.15;50.00;101176.03;5026160;28;20045;-56
2022/08/25 07:55:03;;;;;;;14.10;5.88;;;;;;;24.31;49.13;101176.44;5038741;28;20491;-56
2022/08/25 07:57:30;;;;;;;17.80;6.03;;;;;;;24.36;49.69;101178.41;5049664;28;20051;-56
2022/08/25 07:59:57;;;;;;;18.27;5.95;;;;;;;24.43;48.27;101177.25;5058744;28;20036;-56
2022/08/25 08:02:24;;;;;;;24.85;6.13;;;;;;;24.47;49.48;101177.63;5064110;28;20490;-56
2022/08/25 08:04:52;;;;;;;13.52;6.18;;;;;;;24.55;49.14;101181.88;5035963;28;20043;-56
2022/08/25 08:07:24;;;;;;;16.42;6.32;;;;;;;24.57;50.10;101172.44;5053317;28;20033;-56
2022/08/25 08:09:51;;;;;;;12.35;6.00;;;;;;;24.65;49.60;101165.81;5051793;28;20047;-56
2022/08/25 08:12:22;;;;;;;21.30;6.50;;;;;;;24.71;48.39;101159.47;5053121;28;20124;-56
2022/08/25 08:14:50;;;;;;;11.93;6.05;;;;;;;24.81;50.74;101159.69;5048569;28;20041;-55
2022/08/25 08:17:18;;;;;;;24.20;8.65;;;;;;;24.89;48.95;101163.91;5058461;28;20052;-56
2022/08/25 08:19:45;;;;;;;21.52;6.20;;;;;;;24.97;47.38;101168.13;5054633;28;20052;-56
2022/08/25 08:22:14;;;;;;;14.23;5.78;;;;;;;25.10;47.21;101157.84;5038530;28;20049;-56
2022/08/25 08:24:43;;;;;;;18.35;6.90;;;;;;;25.23;47.59;101156.75;5013639;28;20040;-56
2022/08/25 08:27:12;;;;;;;17.38;6.68;;;;;;;25.32;47.30;101154.47;5052447;28;20052;-55
2022/08/25 08:29:40;;;;;;;19.13;6.18;;;;;;;25.39;48.18;101146.19;5048761;28;20076;-57
2022/08/25 08:32:12;;;;;;;16.02;5.97;;;;;;;25.48;48.04;101147.44;5042719;28;20049;-57
2022/08/25 08:34:40;;;;;;;19.23;6.35;;;;;;;25.54;49.17;101138.34;5052746;28;20037;-57
2022/08/25 08:37:07;;;;;;;20.90;5.97;;;;;;;25.64;45.98;101146.66;5052787;28;20049;-57
2022/08/25 08:39:36;;;;;;;19.00;6.50;;;;;;;25.83;45.75;101147.25;5057230;28;20043;-57
2022/08/25 08:42:17;;;;;;;12.18;5.72;;;;;;;25.92;44.85;101142.22;5051190;28;20049;-57
2022/08/25 08:47:49;;;;;;;13.05;6.05;;;;;;;26.18;44.44;101138.06;5128240;27;1198585;-57
2022/08/25 08:53:19;;;;;;;15.15;6.40;;;;;;;26.50;45.35;101134.69;5131026;27;20850;-56
2022/08/25 08:55:50;;;;;;;14.13;6.28;;;;;;;26.67;44.44;101129.25;5114394;28;20044;-57
2022/08/25 08:58:23;;;;;;;15.38;6.20;;;;;;;26.77;43.99;101121.19;5119769;28;20056;-57
2022/08/25 09:00:54;;;;;;;18.20;6.15;;;;;;;26.91;43.21;101120.84;5128250;28;20042;-57
2022/08/25 09:03:36;;;;;;;14.73;6.45;;;;;;;26.97;43.52;101115.16;5121457;27;20043;-58
2022/08/25 09:06:09;;;;;;;17.50;6.55;;;;;;;27.08;43.00;101115.31;5124728;27;20085;-58
2022/08/25 09:08:38;;;;;;;20.67;6.63;;;;;;;27.23;42.58;101122.81;5114244;28;20039;-58
2022/08/25 09:14:35;;;;;;;12.27;5.80;;;;;;;27.54;41.52;101111.19;5114178;27;20394;-57
2022/08/25 09:17:12;;;;;;;16.52;6.20;;;;;;;27.72;42.01;101103.69;5111164;28;20084;-57
2022/08/25 09:20:18;;;;;;;14.77;6.13;;;;;;;27.86;41.41;101102.16;5108337;28;20894;-57
2022/08/25 09:22:56;;;;;;;15.88;6.50;;;;;;;27.88;41.61;101099.16;4991433;28;20620;-57
2022/08/25 09:25:38;;;;;;;15.98;6.00;;;;;;;28.12;39.55;101102.34;5099301;28;20040;-57
2022/08/25 09:31:21;;;;;;;15.00;6.03;;;;;;;28.64;39.94;101098.03;5107472;27;20864;-57
2022/08/25 09:33:55;;;;;;;13.35;6.38;;;;;;;28.83;38.57;101096.44;5106819;28;20393;-57
2022/08/25 09:36:24;;;;;;;13.88;5.60;;;;;;;29.19;40.01;101095.78;5105950;27;20464;-57
2022/08/25 09:38:51;;;;;;;13.43;5.65;;;;;;;29.59;37.74;101092.25;5111384;28;20093;-57
2022/08/25 09:41:39;;;;;;;14.15;6.00;;;;;;;30.24;36.42;101103.41;5108972;28;20073;-58
2022/08/25 09:44:18;;;;;;;15.02;5.55;;;;;;;30.62;35.06;101089.38;5100120;28;20409;-58
2022/08/25 09:47:06;;;;;;;12.90;6.10;;;;;;;31.11;34.64;101094.06;5090672;28;20048;-58
2022/08/25 09:49:38;;;;;;;14.25;6.38;;;;;;;31.63;33.48;101100.00;5106090;28;20036;-58
2022/08/25 09:52:30;;;;;;;13.20;5.57;;;;;;;32.26;33.78;101095.59;5120978;27;20134;-56
2022/08/25 09:55:07;;;;;;;16.15;6.03;;;;;;;32.42;32.72;101101.69;5097871;28;20071;-56
2022/08/25 10:00:27;;;;;;;17.05;6.18;;;;;;;32.44;32.47;101091.28;5107340;27;20433;-57
2022/08/25 10:03:20;;;;;;;16.15;5.45;;;;;;;32.25;32.47;101083.78;5104460;28;20054;-55
2022/08/25 10:06:10;;;;;;;12.25;5.43;;;;;;;32.36;33.43;101084.47;5088548;28;20036;-57
2022/08/25 10:08:50;;;;;;;11.45;5.15;;;;;;;31.87;32.47;101083.63;5092236;28;20032;-57
2022/08/25 10:11:37;;;;;;;18.80;5.18;;;;;;;32.18;32.73;101082.50;5107184;28;20054;-57
2022/08/25 10:14:27;;;;;;;13.98;5.03;;;;;;;32.27;32.99;101078.00;5107278;28;20050;-57
2022/08/25 10:17:15;;;;;;;13.30;6.72;;;;;;;32.30;32.26;101069.19;5088111;28;20048;-57
2022/08/25 10:19:42;;;;;;;13.13;5.18;;;;;;;32.23;31.58;101071.47;5090156;28;20175;-57
2022/08/25 10:22:31;;;;;;;14.80;5.25;;;;;;;32.22;32.01;101070.66;5057166;28;20056;-57
2022/08/25 10:24:59;;;;;;;12.30;4.70;;;;;;;32.10;32.01;101068.31;5087485;28;20127;-55
2022/08/25 10:28:05;;;;;;;13.55;5.15;;;;;;;32.31;31.71;101059.84;5091283;28;20113;-54
2022/08/25 10:31:01;;;;;;;10.18;4.70;;;;;;;32.27;33.04;101059.63;5093416;28;20048;-55
2022/08/25 10:36:51;;;;;;;19.88;5.22;;;;;;;32.64;31.24;101058.09;5092487;28;20417;-54
2022/08/25 10:39:35;;;;;;;14.38;5.00;;;;;;;32.63;31.33;101050.13;5075157;28;20056;-54
2022/08/25 10:42:29;;;;;;;10.65;4.95;;;;;;;32.61;31.31;101044.94;5069212;28;20102;-54
2022/08/25 10:45:42;;;;;;;16.20;4.90;;;;;;;32.84;30.27;101036.94;5066927;28;20040;-54
2022/08/25 10:48:49;;;;;;;11.15;5.07;;;;;;;32.27;31.10;101034.94;5059301;28;20048;-55
2022/08/25 10:51:39;;;;;;;14.02;5.53;;;;;;;32.27;32.56;101028.59;5080992;28;20083;-54
2022/08/25 10:54:35;;;;;;;17.65;5.03;;;;;;;32.39;30.85;101039.97;5077043;28;20796;-54
2022/08/25 10:57:41;;;;;;;12.55;5.00;;;;;;;32.51;31.77;101021.16;5075502;28;20565;-54
2022/08/25 11:00:17;;;;;;;13.65;5.47;;;;;;;32.65;32.45;101025.94;5077408;28;20060;-54
2022/08/25 11:03:13;;;;;;;11.68;5.15;;;;;;;32.61;30.72;101020.22;5064480;28;20045;-55
2022/08/25 11:05:50;;;;;;;11.80;5.35;;;;;;;32.80;30.30;101012.00;5059717;28;20033;-54
2022/08/25 11:08:33;;;;;;;11.70;4.90;;;;;;;32.94;31.25;101019.47;5070149;28;20123;-54
2022/08/25 11:11:08;;;;;;;15.15;4.78;;;;;;;32.69;29.28;101005.84;5064466;28;20051;-54
2022/08/25 11:13:44;;;;;;;14.57;4.97;;;;;;;32.75;29.98;101001.09;5083865;28;20071;-55
2022/08/25 11:16:15;;;;;;;15.35;5.20;;;;;;;32.62;30.30;100999.91;5079014;28;20032;-54
2022/08/25 11:18:50;;;;;;;15.77;4.82;;;;;;;32.83;31.58;100997.66;5084744;28;20061;-54
2022/08/25 11:21:25;;;;;;;9.98;4.75;;;;;;;32.93;30.71;100995.88;5066938;28;20059;-55
2022/08/25 11:24:04;;;;;;;12.25;5.20;;;;;;;32.92;29.83;101002.47;4950772;28;20067;-53
2022/08/25 11:26:34;;;;;;;14.93;5.20;;;;;;;33.13;29.82;100997.50;5078856;28;20513;-55
2022/08/25 11:29:20;;;;;;;12.27;4.97;;;;;;;33.04;28.86;100995.41;5069464;28;20474;-56
2022/08/25 11:31:50;;;;;;;13.10;4.75;;;;;;;33.11;28.64;100997.78;5058884;28;20053;-55
2022/08/25 11:34:20;;;;;;;15.48;5.25;;;;;;;32.87;29.40;100995.97;5065727;28;20056;-53
2022/08/25 11:36:56;;;;;;;12.50;4.90;;;;;;;33.06;30.80;100992.38;5067988;28;20702;-57
2022/08/25 11:39:43;;;;;;;15.73;5.25;;;;;;;33.16;29.08;100994.16;5066930;28;20047;-56
2022/08/25 11:42:50;;;;;;;14.60;4.80;;;;;;;33.37;30.15;100981.69;5068552;28;20046;-56
2022/08/25 11:45:44;;;;;;;19.90;5.13;;;;;;;33.42;29.07;100987.09;5079921;28;20040;-56
2022/08/25 11:48:50;;;;;;;12.15;5.00;;;;;;;33.34;30.13;100981.47;5064493;28;20044;-55
2022/08/25 11:51:40;;;;;;;13.93;4.93;;;;;;;33.03;28.32;100980.03;5059982;28;20057;-56
2022/08/25 11:54:33;;;;;;;14.10;4.72;;;;;;;33.24;30.04;100975.06;5062290;28;20037;-55
2022/08/25 11:57:06;;;;;;;11.85;4.85;;;;;;;33.33;28.94;100974.34;5054646;28;20053;-56
2022/08/25 11:59:55;;;;;;;13.25;4.90;;;;;;;33.04;28.75;100975.38;5085761;28;20053;-55
2022/08/25 12:10:55;;;;;;;10.25;4.72;;;;;;;32.96;29.37;100965.06;5145634;27;20368;-55
2022/08/25 12:13:46;;;;;;;14.23;4.53;;;;;;;33.19;28.72;100966.09;5113127;28;20048;-55